createdAt,value
2023-05-21T00:02:49.479Z,18
2023-05-21T00:07:49.925Z,17
2023-05-21T00:12:49.353Z,18
2023-05-21T00:17:49.356Z,18
2023-05-21T00:22:49.868Z,16
2023-05-21T00:27:49.873Z,16
2023-05-21T00:32:49.424Z,14
2023-05-21T00:37:49.386Z,15
2023-05-21T00:42:49.395Z,13
2023-05-21T00:47:49.451Z,13
2023-05-21T00:52:49.409Z,14
2023-05-21T00:57:50.041Z,14
2023-05-21T01:02:49.496Z,16
2023-05-21T01:07:49.433Z,15
2023-05-21T01:12:49.950Z,16
2023-05-21T01:17:49.476Z,15
2023-05-21T01:22:49.622Z,15
2023-05-21T01:27:49.474Z,15
2023-05-21T01:32:49.584Z,16
2023-05-21T01:37:49.482Z,17
2023-05-21T01:42:49.508Z,19
2023-05-21T01:47:49.550Z,19
2023-05-21T01:52:49.521Z,19
2023-05-21T01:57:50.054Z,19
2023-05-21T02:07:49.550Z,17
2023-05-21T02:12:50.072Z,18
2023-05-21T02:17:49.606Z,21
2023-05-21T02:22:49.585Z,20
2023-05-21T02:27:49.604Z,20
2023-05-21T02:32:50.131Z,21
2023-05-21T02:37:49.613Z,21
2023-05-21T02:42:49.624Z,20
2023-05-21T02:47:50.200Z,21
2023-05-21T02:57:49.647Z,20
2023-05-21T03:02:50.389Z,21
2023-05-21T03:07:49.711Z,21
2023-05-21T03:12:49.674Z,20
2023-05-21T03:17:49.673Z,20
2023-05-21T03:22:49.695Z,17
2023-05-21T03:27:50.208Z,17
2023-05-21T03:32:50.239Z,17
2023-05-21T03:37:49.727Z,20
2023-05-21T03:47:49.786Z,21
2023-05-21T03:52:49.766Z,20
2023-05-21T03:57:49.785Z,18
2023-05-21T04:02:50.367Z,20
2023-05-21T04:07:49.786Z,20
2023-05-21T04:12:49.778Z,18
2023-05-21T04:17:49.821Z,19
2023-05-21T04:22:50.321Z,21
2023-05-21T04:27:50.325Z,20
2023-05-21T04:32:49.833Z,21
2023-05-21T04:37:49.826Z,20
2023-05-21T04:42:50.472Z,21
2023-05-21T04:47:49.889Z,20
2023-05-21T04:52:49.864Z,20
2023-05-21T04:57:49.871Z,18
2023-05-21T05:02:50.497Z,19
2023-05-21T05:07:49.885Z,21
2023-05-21T05:12:49.894Z,20
2023-05-21T05:17:49.938Z,21
2023-05-21T05:27:50.429Z,22
2023-05-21T05:32:49.999Z,21
2023-05-21T05:37:49.941Z,23
2023-05-21T05:42:49.957Z,21
2023-05-21T05:47:50.037Z,22
2023-05-21T05:52:49.974Z,21
2023-05-21T05:57:49.983Z,21
2023-05-21T06:02:50.525Z,23
2023-05-21T06:07:49.998Z,22
2023-05-21T06:17:50.036Z,21
2023-05-21T06:22:50.587Z,21
2023-05-21T06:27:50.566Z,21
2023-05-21T06:32:50.193Z,20
2023-05-21T06:37:50.051Z,22
2023-05-21T06:42:50.073Z,22
2023-05-21T06:47:50.609Z,20
2023-05-21T06:52:50.122Z,19
2023-05-21T06:57:50.100Z,20
2023-05-21T07:07:50.114Z,20
2023-05-21T07:12:50.157Z,20
2023-05-21T07:17:50.129Z,18
2023-05-21T07:22:50.144Z,19
2023-05-21T07:27:50.665Z,19
2023-05-21T07:32:50.196Z,19
2023-05-21T07:37:50.193Z,19
2023-05-21T07:42:50.180Z,16
2023-05-21T07:47:50.710Z,16
2023-05-21T07:52:50.298Z,18
2023-05-21T07:57:50.203Z,16
2023-05-21T08:02:50.454Z,17
2023-05-21T08:07:50.237Z,16
2023-05-21T08:12:50.751Z,15
2023-05-21T08:17:50.273Z,17
2023-05-21T08:22:50.260Z,17
2023-05-21T08:27:52.291Z,16
2023-05-21T08:32:50.825Z,17
2023-05-21T08:42:50.329Z,16
2023-05-21T08:47:50.359Z,18
2023-05-21T08:52:50.849Z,17
2023-05-21T08:57:50.317Z,19
2023-05-21T09:02:50.347Z,19
2023-05-21T09:07:52.442Z,18
2023-05-21T09:12:50.352Z,18
2023-05-21T09:17:50.396Z,19
2023-05-21T09:27:50.372Z,18
2023-05-21T09:32:50.460Z,18
2023-05-21T09:37:50.915Z,19
2023-05-21T09:42:50.398Z,17
2023-05-21T09:47:50.471Z,20
2023-05-21T09:52:50.437Z,18
2023-05-21T09:57:50.978Z,19
2023-05-21T10:02:50.580Z,17
2023-05-21T10:07:50.455Z,19
2023-05-21T10:12:50.455Z,16
2023-05-21T10:17:51.262Z,17
2023-05-21T10:22:50.979Z,17
2023-05-21T10:27:50.494Z,17
2023-05-21T10:32:51.074Z,14
2023-05-21T10:37:51.070Z,15
2023-05-21T10:42:50.518Z,16
2023-05-21T10:47:52.118Z,13
2023-05-21T10:52:50.542Z,13
2023-05-21T11:02:50.768Z,15
2023-05-21T11:07:50.599Z,14
2023-05-21T11:12:50.581Z,15
2023-05-21T11:17:51.130Z,16
2023-05-21T11:22:50.609Z,14
2023-05-21T11:27:50.611Z,14
2023-05-21T11:52:51.478Z,14
2023-05-21T11:57:50.663Z,14
2023-05-21T12:02:50.748Z,15
2023-05-21T12:07:50.710Z,13
2023-05-21T12:12:56.137Z,13
2023-05-21T12:17:50.726Z,14
2023-05-21T12:22:50.716Z,12
2023-05-21T12:27:50.715Z,13
2023-05-21T12:32:50.939Z,14
2023-05-21T12:37:51.316Z,13
2023-05-21T12:42:50.842Z,12
2023-05-21T12:47:50.822Z,12
2023-05-21T12:52:50.792Z,13
2023-05-21T12:57:50.785Z,12
2023-05-21T13:02:50.791Z,13
2023-05-21T13:12:50.813Z,14
2023-05-21T13:17:52.519Z,13
2023-05-21T13:22:50.849Z,11
2023-05-21T13:27:50.889Z,10
2023-05-21T13:32:50.901Z,11
2023-05-21T13:37:51.369Z,11
2023-05-21T13:42:50.892Z,9
2023-05-21T13:47:51.401Z,11
2023-05-21T13:52:50.896Z,10
2023-05-21T13:57:50.928Z,9
2023-05-21T14:02:51.066Z,9
2023-05-21T14:22:51.775Z,9
2023-05-21T14:27:50.988Z,9
2023-05-21T14:32:51.483Z,11
2023-05-21T14:37:51.482Z,8
2023-05-21T14:42:51.253Z,9
2023-05-21T14:47:51.020Z,6
2023-05-21T14:52:51.001Z,8
2023-05-21T14:57:51.010Z,7
2023-05-21T15:02:51.604Z,7
2023-05-21T15:07:51.036Z,11
2023-05-21T15:12:51.547Z,7
2023-05-21T15:17:51.090Z,7
2023-05-21T15:22:52.342Z,7
2023-05-21T15:27:51.072Z,7
2023-05-21T15:32:51.081Z,5
2023-05-21T15:37:51.091Z,5
2023-05-21T15:42:51.110Z,7
2023-05-21T15:47:51.645Z,6
2023-05-21T15:52:53.110Z,7
2023-05-21T15:57:51.134Z,5
2023-05-21T16:02:51.163Z,6
2023-05-21T16:07:51.157Z,6
2023-05-21T16:12:51.664Z,7
2023-05-21T16:17:51.311Z,6
2023-05-21T16:22:51.181Z,6
2023-05-21T16:27:51.714Z,7
2023-05-21T16:32:51.239Z,7
2023-05-21T16:37:51.221Z,11
2023-05-21T16:42:51.724Z,11
2023-05-21T16:52:51.375Z,12
2023-05-21T16:57:51.774Z,9
2023-05-21T17:02:51.815Z,9
2023-05-21T17:07:51.336Z,6
2023-05-21T17:12:51.280Z,7
2023-05-21T17:17:51.819Z,6
2023-05-21T17:22:51.821Z,7
2023-05-21T17:27:51.433Z,6
2023-05-21T17:32:51.892Z,6
2023-05-21T17:37:51.326Z,6
2023-05-21T17:42:51.906Z,7
2023-05-21T17:47:51.393Z,7
2023-05-21T17:57:51.379Z,7
2023-05-21T18:02:51.923Z,6
2023-05-21T18:07:51.382Z,6
2023-05-21T18:12:51.399Z,5
2023-05-21T18:17:51.424Z,5
2023-05-21T18:27:51.426Z,6
2023-05-21T18:32:51.958Z,7
2023-05-21T18:37:51.462Z,6
2023-05-21T18:42:51.962Z,6
2023-05-21T18:47:51.477Z,7
2023-05-21T18:52:51.685Z,7
2023-05-21T18:57:51.484Z,7
2023-05-21T19:02:52.085Z,6
2023-05-21T19:07:51.504Z,9
2023-05-21T19:12:51.520Z,10
2023-05-21T19:17:51.613Z,11
2023-05-21T19:22:52.050Z,10
2023-05-21T19:27:51.545Z,11
2023-05-21T19:32:52.096Z,13
2023-05-21T19:37:51.562Z,12
2023-05-21T19:42:51.572Z,48
2023-05-21T19:47:51.600Z,11
2023-05-21T19:52:51.595Z,10
2023-05-21T19:57:51.614Z,11
2023-05-21T20:02:51.730Z,9
2023-05-21T20:17:52.517Z,9
2023-05-21T20:22:51.651Z,8
2023-05-21T20:27:51.678Z,8
2023-05-21T20:32:52.233Z,8
2023-05-21T20:37:51.674Z,7
2023-05-21T20:42:51.687Z,6
2023-05-21T20:47:52.214Z,5
2023-05-21T20:52:51.739Z,6
2023-05-21T20:57:52.240Z,6
2023-05-21T21:02:51.757Z,6
2023-05-21T21:07:53.453Z,6
2023-05-21T21:12:52.246Z,6
2023-05-21T21:32:52.629Z,6
2023-05-21T21:37:53.031Z,6
2023-05-21T21:42:51.801Z,6
2023-05-21T21:47:52.348Z,5
2023-05-21T21:52:51.823Z,6
2023-05-21T21:57:51.842Z,6
2023-05-21T22:02:51.874Z,7
2023-05-21T22:07:51.883Z,7
2023-05-21T22:12:51.862Z,8
2023-05-21T22:17:51.930Z,8
2023-05-21T22:27:51.960Z,7
2023-05-21T22:32:51.926Z,7
2023-05-21T22:37:51.924Z,5
2023-05-21T22:42:51.928Z,5
2023-05-21T22:47:52.002Z,5
2023-05-21T22:52:51.951Z,4
2023-05-21T22:57:51.946Z,4
2023-05-21T23:02:54.138Z,5
2023-05-21T23:07:51.965Z,4
2023-05-21T23:12:51.985Z,5
2023-05-21T23:17:52.515Z,4
2023-05-21T23:22:52.090Z,5
2023-05-21T23:27:52.010Z,4
2023-05-21T23:32:52.079Z,4
2023-05-21T23:37:52.028Z,4
2023-05-21T23:42:52.541Z,4
2023-05-21T23:47:52.171Z,5
2023-05-21T23:52:52.081Z,6
2023-05-21T23:57:52.060Z,4
